sensor_id;sensor_type;location;lat;lon;timestamp;P1;durP1;ratioP1;P2;durP2;ratioP2
51525;SDS011;37611;51.794;21.590;2022-09-09T00:03:58;10.30;;;7.30;;
51525;SDS011;37611;51.794;21.590;2022-09-09T00:08:07;11.70;;;7.70;;
51525;SDS011;37611;51.794;21.590;2022-09-09T00:17:04;11.30;;;7.80;;
51525;SDS011;37611;51.794;21.590;2022-09-09T00:25:19;10.80;;;6.80;;
51525;SDS011;37611;51.794;21.590;2022-09-09T00:29:45;12.70;;;8.40;;
51525;SDS011;37611;51.794;21.590;2022-09-09T00:33:56;12.20;;;8.00;;
51525;SDS011;37611;51.794;21.590;2022-09-09T00:38:14;13.00;;;7.90;;
51525;SDS011;37611;51.794;21.590;2022-09-09T00:42:54;16.20;;;8.40;;
51525;SDS011;37611;51.794;21.590;2022-09-09T00:47:04;12.50;;;8.10;;
51525;SDS011;37611;51.794;21.590;2022-09-09T00:55:43;14.60;;;9.80;;
51525;SDS011;37611;51.794;21.590;2022-09-09T00:59:51;13.00;;;9.50;;
51525;SDS011;37611;51.794;21.590;2022-09-09T01:03:59;15.60;;;9.80;;
51525;SDS011;37611;51.794;21.590;2022-09-09T01:08:03;14.30;;;10.30;;
51525;SDS011;37611;51.794;21.590;2022-09-09T01:12:15;12.50;;;9.40;;
51525;SDS011;37611;51.794;21.590;2022-09-09T01:16:26;13.70;;;9.30;;
51525;SDS011;37611;51.794;21.590;2022-09-09T01:20:39;13.30;;;9.50;;
51525;SDS011;37611;51.794;21.590;2022-09-09T01:29:17;11.80;;;9.80;;
51525;SDS011;37611;51.794;21.590;2022-09-09T01:33:20;16.70;;;9.30;;
51525;SDS011;37611;51.794;21.590;2022-09-09T01:37:22;13.90;;;9.80;;
51525;SDS011;37611;51.794;21.590;2022-09-09T01:41:23;13.60;;;8.50;;
51525;SDS011;37611;51.794;21.590;2022-09-09T01:45:25;16.80;;;10.40;;
51525;SDS011;37611;51.794;21.590;2022-09-09T01:49:27;13.20;;;8.80;;
51525;SDS011;37611;51.794;21.590;2022-09-09T01:53:29;17.20;;;10.90;;
51525;SDS011;37611;51.794;21.590;2022-09-09T01:57:33;13.80;;;10.00;;
51525;SDS011;37611;51.794;21.590;2022-09-09T02:06:39;13.10;;;9.30;;
51525;SDS011;37611;51.794;21.590;2022-09-09T02:11:01;16.40;;;10.50;;
51525;SDS011;37611;51.794;21.590;2022-09-09T02:15:11;16.10;;;10.90;;
51525;SDS011;37611;51.794;21.590;2022-09-09T02:19:23;13.50;;;10.00;;
51525;SDS011;37611;51.794;21.590;2022-09-09T02:23:31;12.00;;;8.50;;
51525;SDS011;37611;51.794;21.590;2022-09-09T02:27:36;14.10;;;9.60;;
51525;SDS011;37611;51.794;21.590;2022-09-09T02:31:38;13.30;;;8.60;;
51525;SDS011;37611;51.794;21.590;2022-09-09T02:35:42;11.30;;;8.50;;
51525;SDS011;37611;51.794;21.590;2022-09-09T02:39:48;14.90;;;9.30;;
51525;SDS011;37611;51.794;21.590;2022-09-09T02:43:50;10.00;;;7.80;;
51525;SDS011;37611;51.794;21.590;2022-09-09T02:52:18;11.10;;;7.60;;
51525;SDS011;37611;51.794;21.590;2022-09-09T02:56:22;11.20;;;7.60;;
51525;SDS011;37611;51.794;21.590;2022-09-09T03:00:27;10.30;;;7.30;;
51525;SDS011;37611;51.794;21.590;2022-09-09T03:04:30;9.10;;;6.90;;
51525;SDS011;37611;51.794;21.590;2022-09-09T03:08:32;11.00;;;7.50;;
51525;SDS011;37611;51.794;21.590;2022-09-09T03:12:34;8.90;;;7.10;;
51525;SDS011;37611;51.794;21.590;2022-09-09T03:16:35;8.50;;;7.20;;
51525;SDS011;37611;51.794;21.590;2022-09-09T03:20:37;10.20;;;7.50;;
51525;SDS011;37611;51.794;21.590;2022-09-09T03:24:38;9.20;;;8.10;;
51525;SDS011;37611;51.794;21.590;2022-09-09T03:28:42;9.00;;;7.60;;
51525;SDS011;37611;51.794;21.590;2022-09-09T03:32:44;9.70;;;7.40;;
51525;SDS011;37611;51.794;21.590;2022-09-09T03:36:46;10.50;;;7.60;;
51525;SDS011;37611;51.794;21.590;2022-09-09T03:40:52;8.90;;;7.50;;
51525;SDS011;37611;51.794;21.590;2022-09-09T03:44:58;11.00;;;8.30;;
51525;SDS011;37611;51.794;21.590;2022-09-09T03:49:00;11.00;;;8.10;;
51525;SDS011;37611;51.794;21.590;2022-09-09T03:53:02;11.00;;;8.60;;
51525;SDS011;37611;51.794;21.590;2022-09-09T03:57:04;9.60;;;8.20;;
51525;SDS011;37611;51.794;21.590;2022-09-09T04:01:10;10.70;;;8.30;;
51525;SDS011;37611;51.794;21.590;2022-09-09T04:05:14;10.80;;;7.40;;
51525;SDS011;37611;51.794;21.590;2022-09-09T04:09:16;10.60;;;7.70;;
51525;SDS011;37611;51.794;21.590;2022-09-09T04:13:18;9.50;;;7.40;;
51525;SDS011;37611;51.794;21.590;2022-09-09T04:17:21;11.00;;;8.50;;
51525;SDS011;37611;51.794;21.590;2022-09-09T04:21:22;12.10;;;8.10;;
51525;SDS011;37611;51.794;21.590;2022-09-09T04:25:27;8.70;;;7.10;;
51525;SDS011;37611;51.794;21.590;2022-09-09T04:29:30;11.80;;;7.80;;
51525;SDS011;37611;51.794;21.590;2022-09-09T04:33:32;9.20;;;8.00;;
51525;SDS011;37611;51.794;21.590;2022-09-09T04:37:34;9.80;;;7.20;;
51525;SDS011;37611;51.794;21.590;2022-09-09T04:41:36;11.30;;;6.90;;
51525;SDS011;37611;51.794;21.590;2022-09-09T04:45:38;10.50;;;7.70;;
51525;SDS011;37611;51.794;21.590;2022-09-09T04:49:41;8.20;;;6.60;;
51525;SDS011;37611;51.794;21.590;2022-09-09T04:53:43;11.10;;;7.80;;
51525;SDS011;37611;51.794;21.590;2022-09-09T04:57:45;7.50;;;6.30;;
51525;SDS011;37611;51.794;21.590;2022-09-09T05:01:47;10.10;;;6.80;;
51525;SDS011;37611;51.794;21.590;2022-09-09T05:05:54;9.60;;;7.30;;
51525;SDS011;37611;51.794;21.590;2022-09-09T05:09:57;8.20;;;6.70;;
51525;SDS011;37611;51.794;21.590;2022-09-09T05:13:59;11.00;;;7.00;;
51525;SDS011;37611;51.794;21.590;2022-09-09T05:18:01;9.60;;;6.90;;
51525;SDS011;37611;51.794;21.590;2022-09-09T05:22:04;8.50;;;6.80;;
51525;SDS011;37611;51.794;21.590;2022-09-09T05:26:07;9.00;;;7.50;;
51525;SDS011;37611;51.794;21.590;2022-09-09T05:30:14;8.50;;;7.10;;
51525;SDS011;37611;51.794;21.590;2022-09-09T05:34:17;8.90;;;6.90;;
51525;SDS011;37611;51.794;21.590;2022-09-09T05:38:20;9.40;;;7.10;;
51525;SDS011;37611;51.794;21.590;2022-09-09T05:42:28;10.40;;;6.80;;
51525;SDS011;37611;51.794;21.590;2022-09-09T05:46:32;9.80;;;6.50;;
51525;SDS011;37611;51.794;21.590;2022-09-09T05:50:33;9.70;;;6.70;;
51525;SDS011;37611;51.794;21.590;2022-09-09T05:54:35;9.30;;;7.40;;
51525;SDS011;37611;51.794;21.590;2022-09-09T05:58:38;8.40;;;6.90;;
51525;SDS011;37611;51.794;21.590;2022-09-09T06:02:40;8.60;;;6.90;;
51525;SDS011;37611;51.794;21.590;2022-09-09T06:06:42;10.30;;;7.00;;
51525;SDS011;37611;51.794;21.590;2022-09-09T06:10:44;11.00;;;7.80;;
51525;SDS011;37611;51.794;21.590;2022-09-09T06:14:48;11.10;;;8.00;;
51525;SDS011;37611;51.794;21.590;2022-09-09T06:18:52;7.90;;;6.10;;
51525;SDS011;37611;51.794;21.590;2022-09-09T06:27:31;8.80;;;7.10;;
51525;SDS011;37611;51.794;21.590;2022-09-09T06:31:34;8.60;;;7.10;;
51525;SDS011;37611;51.794;21.590;2022-09-09T06:35:39;8.80;;;7.90;;
51525;SDS011;37611;51.794;21.590;2022-09-09T06:39:41;9.10;;;8.10;;
51525;SDS011;37611;51.794;21.590;2022-09-09T06:43:43;9.00;;;7.90;;
51525;SDS011;37611;51.794;21.590;2022-09-09T06:47:45;11.70;;;8.00;;
51525;SDS011;37611;51.794;21.590;2022-09-09T06:51:48;9.10;;;8.20;;
51525;SDS011;37611;51.794;21.590;2022-09-09T06:55:50;12.40;;;9.30;;
51525;SDS011;37611;51.794;21.590;2022-09-09T06:59:52;10.10;;;8.90;;
51525;SDS011;37611;51.794;21.590;2022-09-09T07:03:55;10.70;;;9.60;;
51525;SDS011;37611;51.794;21.590;2022-09-09T07:07:58;10.30;;;9.20;;
51525;SDS011;37611;51.794;21.590;2022-09-09T07:12:00;9.80;;;8.20;;
51525;SDS011;37611;51.794;21.590;2022-09-09T07:20:09;10.90;;;9.00;;
51525;SDS011;37611;51.794;21.590;2022-09-09T07:24:13;12.50;;;10.10;;
51525;SDS011;37611;51.794;21.590;2022-09-09T07:28:16;14.10;;;10.30;;
51525;SDS011;37611;51.794;21.590;2022-09-09T07:32:18;12.30;;;9.30;;
51525;SDS011;37611;51.794;21.590;2022-09-09T07:36:22;13.50;;;10.40;;
51525;SDS011;37611;51.794;21.590;2022-09-09T07:40:27;11.10;;;9.30;;
51525;SDS011;37611;51.794;21.590;2022-09-09T07:44:29;11.60;;;10.40;;
51525;SDS011;37611;51.794;21.590;2022-09-09T07:48:31;13.10;;;9.50;;
51525;SDS011;37611;51.794;21.590;2022-09-09T07:52:33;10.30;;;9.20;;
51525;SDS011;37611;51.794;21.590;2022-09-09T07:56:35;13.00;;;9.20;;
51525;SDS011;37611;51.794;21.590;2022-09-09T08:00:38;11.10;;;9.80;;
51525;SDS011;37611;51.794;21.590;2022-09-09T08:04:41;12.50;;;11.10;;
51525;SDS011;37611;51.794;21.590;2022-09-09T08:08:42;12.70;;;11.40;;
51525;SDS011;37611;51.794;21.590;2022-09-09T08:12:44;12.30;;;11.00;;
51525;SDS011;37611;51.794;21.590;2022-09-09T13:35:33;35.90;;;22.30;;
51525;SDS011;37611;51.794;21.590;2022-09-09T13:39:35;38.40;;;22.90;;
51525;SDS011;37611;51.794;21.590;2022-09-09T13:43:43;34.30;;;22.40;;
51525;SDS011;37611;51.794;21.590;2022-09-09T13:52:02;35.50;;;22.60;;
51525;SDS011;37611;51.794;21.590;2022-09-09T13:56:08;33.10;;;21.60;;
51525;SDS011;37611;51.794;21.590;2022-09-09T14:00:11;33.50;;;20.20;;
51525;SDS011;37611;51.794;21.590;2022-09-09T14:04:13;29.10;;;20.40;;
51525;SDS011;37611;51.794;21.590;2022-09-09T14:08:22;29.90;;;20.00;;
51525;SDS011;37611;51.794;21.590;2022-09-09T14:12:26;30.70;;;20.70;;
51525;SDS011;37611;51.794;21.590;2022-09-09T14:16:28;27.60;;;19.70;;
51525;SDS011;37611;51.794;21.590;2022-09-09T14:20:30;30.60;;;19.80;;
51525;SDS011;37611;51.794;21.590;2022-09-09T14:24:32;31.00;;;21.30;;
51525;SDS011;37611;51.794;21.590;2022-09-09T14:28:35;29.70;;;19.60;;
51525;SDS011;37611;51.794;21.590;2022-09-09T14:32:37;31.50;;;23.40;;
51525;SDS011;37611;51.794;21.590;2022-09-09T14:36:39;33.10;;;22.40;;
51525;SDS011;37611;51.794;21.590;2022-09-09T14:40:44;31.00;;;19.70;;
51525;SDS011;37611;51.794;21.590;2022-09-09T14:44:48;28.50;;;18.70;;
51525;SDS011;37611;51.794;21.590;2022-09-09T14:48:50;28.00;;;18.80;;
51525;SDS011;37611;51.794;21.590;2022-09-09T14:52:52;33.70;;;21.80;;
51525;SDS011;37611;51.794;21.590;2022-09-09T14:56:53;31.50;;;20.40;;
51525;SDS011;37611;51.794;21.590;2022-09-09T15:00:55;29.40;;;18.40;;
51525;SDS011;37611;51.794;21.590;2022-09-09T15:05:11;30.80;;;21.10;;
51525;SDS011;37611;51.794;21.590;2022-09-09T15:09:14;26.90;;;18.30;;
51525;SDS011;37611;51.794;21.590;2022-09-09T15:13:16;29.20;;;18.00;;
51525;SDS011;37611;51.794;21.590;2022-09-09T15:17:21;26.00;;;18.60;;
51525;SDS011;37611;51.794;21.590;2022-09-09T15:21:24;28.20;;;19.70;;
51525;SDS011;37611;51.794;21.590;2022-09-09T15:25:30;27.20;;;20.40;;
51525;SDS011;37611;51.794;21.590;2022-09-09T15:29:32;28.60;;;20.00;;
51525;SDS011;37611;51.794;21.590;2022-09-09T15:33:34;32.60;;;22.10;;
51525;SDS011;37611;51.794;21.590;2022-09-09T15:37:38;27.90;;;20.20;;
51525;SDS011;37611;51.794;21.590;2022-09-09T15:41:40;29.30;;;19.90;;
51525;SDS011;37611;51.794;21.590;2022-09-09T15:45:41;26.20;;;18.40;;
51525;SDS011;37611;51.794;21.590;2022-09-09T15:49:43;29.90;;;18.30;;
51525;SDS011;37611;51.794;21.590;2022-09-09T15:53:45;29.00;;;18.60;;
51525;SDS011;37611;51.794;21.590;2022-09-09T15:57:47;27.00;;;18.60;;
51525;SDS011;37611;51.794;21.590;2022-09-09T16:01:49;27.80;;;21.90;;
51525;SDS011;37611;51.794;21.590;2022-09-09T16:05:54;30.30;;;24.00;;
51525;SDS011;37611;51.794;21.590;2022-09-09T16:09:55;27.40;;;21.00;;
51525;SDS011;37611;51.794;21.590;2022-09-09T16:13:58;25.30;;;18.70;;
51525;SDS011;37611;51.794;21.590;2022-09-09T16:18:00;30.40;;;21.50;;
51525;SDS011;37611;51.794;21.590;2022-09-09T16:22:02;28.00;;;21.40;;
51525;SDS011;37611;51.794;21.590;2022-09-09T16:26:05;25.40;;;20.60;;
51525;SDS011;37611;51.794;21.590;2022-09-09T16:30:07;26.40;;;19.90;;
51525;SDS011;37611;51.794;21.590;2022-09-09T16:34:11;22.80;;;17.20;;
51525;SDS011;37611;51.794;21.590;2022-09-09T16:38:13;24.20;;;18.60;;
51525;SDS011;37611;51.794;21.590;2022-09-09T16:42:15;22.90;;;18.00;;
51525;SDS011;37611;51.794;21.590;2022-09-09T16:46:18;30.70;;;21.40;;
51525;SDS011;37611;51.794;21.590;2022-09-09T16:50:20;25.40;;;18.70;;
51525;SDS011;37611;51.794;21.590;2022-09-09T16:54:22;26.90;;;18.30;;
51525;SDS011;37611;51.794;21.590;2022-09-09T16:58:26;29.30;;;20.90;;
51525;SDS011;37611;51.794;21.590;2022-09-09T17:02:29;27.00;;;21.70;;
51525;SDS011;37611;51.794;21.590;2022-09-09T17:06:32;28.20;;;20.90;;
51525;SDS011;37611;51.794;21.590;2022-09-09T17:10:42;26.10;;;22.00;;
51525;SDS011;37611;51.794;21.590;2022-09-09T17:14:44;26.80;;;19.80;;
51525;SDS011;37611;51.794;21.590;2022-09-09T17:18:47;24.60;;;16.80;;
51525;SDS011;37611;51.794;21.590;2022-09-09T17:22:49;25.10;;;17.60;;
51525;SDS011;37611;51.794;21.590;2022-09-09T17:26:51;32.00;;;22.90;;
51525;SDS011;37611;51.794;21.590;2022-09-09T17:30:53;27.20;;;20.70;;
51525;SDS011;37611;51.794;21.590;2022-09-09T17:34:55;25.00;;;19.00;;
51525;SDS011;37611;51.794;21.590;2022-09-09T17:38:57;26.50;;;19.70;;
51525;SDS011;37611;51.794;21.590;2022-09-09T17:43:03;50.40;;;29.20;;
51525;SDS011;37611;51.794;21.590;2022-09-09T17:47:05;29.00;;;19.30;;
51525;SDS011;37611;51.794;21.590;2022-09-09T17:51:07;25.50;;;20.30;;
51525;SDS011;37611;51.794;21.590;2022-09-09T17:55:12;47.50;;;37.30;;
51525;SDS011;37611;51.794;21.590;2022-09-09T17:59:15;74.90;;;44.70;;
51525;SDS011;37611;51.794;21.590;2022-09-09T18:03:18;33.50;;;27.20;;
51525;SDS011;37611;51.794;21.590;2022-09-09T18:07:19;54.30;;;49.00;;
51525;SDS011;37611;51.794;21.590;2022-09-09T18:11:22;30.20;;;23.40;;
51525;SDS011;37611;51.794;21.590;2022-09-09T18:15:26;32.90;;;22.10;;
51525;SDS011;37611;51.794;21.590;2022-09-09T18:19:28;21.30;;;17.70;;
51525;SDS011;37611;51.794;21.590;2022-09-09T18:23:35;31.00;;;27.70;;
51525;SDS011;37611;51.794;21.590;2022-09-09T18:27:37;53.80;;;48.10;;
51525;SDS011;37611;51.794;21.590;2022-09-09T18:31:39;30.40;;;23.40;;
51525;SDS011;37611;51.794;21.590;2022-09-09T18:35:42;23.90;;;16.10;;
51525;SDS011;37611;51.794;21.590;2022-09-09T18:39:44;22.60;;;17.70;;
51525;SDS011;37611;51.794;21.590;2022-09-09T18:43:46;24.50;;;20.40;;
51525;SDS011;37611;51.794;21.590;2022-09-09T18:47:50;26.30;;;18.50;;
51525;SDS011;37611;51.794;21.590;2022-09-09T18:51:52;43.30;;;27.60;;
51525;SDS011;37611;51.794;21.590;2022-09-09T18:55:58;46.00;;;30.20;;
51525;SDS011;37611;51.794;21.590;2022-09-09T19:00:03;39.40;;;27.30;;
51525;SDS011;37611;51.794;21.590;2022-09-09T19:04:06;23.00;;;18.90;;
51525;SDS011;37611;51.794;21.590;2022-09-09T19:08:08;18.80;;;16.60;;
51525;SDS011;37611;51.794;21.590;2022-09-09T19:12:10;21.90;;;16.80;;
51525;SDS011;37611;51.794;21.590;2022-09-09T19:16:13;21.50;;;18.20;;
51525;SDS011;37611;51.794;21.590;2022-09-09T19:20:15;23.50;;;16.60;;
51525;SDS011;37611;51.794;21.590;2022-09-09T19:24:21;15.80;;;14.10;;
51525;SDS011;37611;51.794;21.590;2022-09-09T19:28:24;15.80;;;13.10;;
51525;SDS011;37611;51.794;21.590;2022-09-09T19:32:27;17.20;;;14.70;;
51525;SDS011;37611;51.794;21.590;2022-09-09T19:36:28;16.60;;;14.20;;
51525;SDS011;37611;51.794;21.590;2022-09-09T19:40:34;14.60;;;13.00;;
51525;SDS011;37611;51.794;21.590;2022-09-09T19:44:36;17.30;;;13.70;;
51525;SDS011;37611;51.794;21.590;2022-09-09T19:48:38;17.30;;;13.30;;
51525;SDS011;37611;51.794;21.590;2022-09-09T19:52:41;19.30;;;15.60;;
51525;SDS011;37611;51.794;21.590;2022-09-09T19:56:43;17.00;;;14.30;;
51525;SDS011;37611;51.794;21.590;2022-09-09T20:00:45;12.90;;;11.50;;
51525;SDS011;37611;51.794;21.590;2022-09-09T20:04:47;12.50;;;11.00;;
51525;SDS011;37611;51.794;21.590;2022-09-09T20:08:49;10.90;;;9.80;;
51525;SDS011;37611;51.794;21.590;2022-09-09T20:12:51;11.80;;;10.50;;
51525;SDS011;37611;51.794;21.590;2022-09-09T20:16:53;13.70;;;10.80;;
51525;SDS011;37611;51.794;21.590;2022-09-09T20:20:58;12.70;;;10.40;;
51525;SDS011;37611;51.794;21.590;2022-09-09T20:25:01;12.60;;;10.70;;
51525;SDS011;37611;51.794;21.590;2022-09-09T20:29:05;12.20;;;10.80;;
51525;SDS011;37611;51.794;21.590;2022-09-09T20:33:08;13.60;;;11.40;;
51525;SDS011;37611;51.794;21.590;2022-09-09T20:37:10;10.80;;;9.70;;
51525;SDS011;37611;51.794;21.590;2022-09-09T20:41:13;9.90;;;8.80;;
51525;SDS011;37611;51.794;21.590;2022-09-09T20:45:18;11.60;;;10.40;;
51525;SDS011;37611;51.794;21.590;2022-09-09T20:49:20;10.60;;;9.50;;
51525;SDS011;37611;51.794;21.590;2022-09-09T20:53:24;9.50;;;8.50;;
51525;SDS011;37611;51.794;21.590;2022-09-09T20:57:26;10.00;;;8.70;;
51525;SDS011;37611;51.794;21.590;2022-09-09T21:01:27;9.40;;;8.30;;
51525;SDS011;37611;51.794;21.590;2022-09-09T21:05:29;9.70;;;8.60;;
51525;SDS011;37611;51.794;21.590;2022-09-09T21:09:32;9.90;;;8.00;;
51525;SDS011;37611;51.794;21.590;2022-09-09T21:13:34;9.70;;;8.50;;
51525;SDS011;37611;51.794;21.590;2022-09-09T21:17:37;9.20;;;8.20;;
51525;SDS011;37611;51.794;21.590;2022-09-09T21:21:40;9.00;;;8.10;;
51525;SDS011;37611;51.794;21.590;2022-09-09T21:25:43;10.70;;;9.50;;
51525;SDS011;37611;51.794;21.590;2022-09-09T21:29:44;8.90;;;7.90;;
51525;SDS011;37611;51.794;21.590;2022-09-09T21:33:47;7.60;;;6.80;;
51525;SDS011;37611;51.794;21.590;2022-09-09T21:37:49;9.30;;;7.50;;
51525;SDS011;37611;51.794;21.590;2022-09-09T21:41:51;8.00;;;7.20;;
51525;SDS011;37611;51.794;21.590;2022-09-09T21:45:53;8.50;;;7.20;;
51525;SDS011;37611;51.794;21.590;2022-09-09T21:49:54;8.30;;;7.50;;
51525;SDS011;37611;51.794;21.590;2022-09-09T21:53:56;8.80;;;7.80;;
51525;SDS011;37611;51.794;21.590;2022-09-09T21:57:58;8.10;;;7.30;;
51525;SDS011;37611;51.794;21.590;2022-09-09T22:02:00;8.70;;;7.50;;
51525;SDS011;37611;51.794;21.590;2022-09-09T22:06:03;11.00;;;8.20;;
51525;SDS011;37611;51.794;21.590;2022-09-09T22:10:06;10.30;;;8.50;;
51525;SDS011;37611;51.794;21.590;2022-09-09T22:14:10;9.60;;;7.90;;
51525;SDS011;37611;51.794;21.590;2022-09-09T22:18:12;13.60;;;8.70;;
51525;SDS011;37611;51.794;21.590;2022-09-09T22:22:16;8.50;;;7.20;;
51525;SDS011;37611;51.794;21.590;2022-09-09T22:26:19;11.20;;;8.70;;
51525;SDS011;37611;51.794;21.590;2022-09-09T22:30:22;9.40;;;7.80;;
51525;SDS011;37611;51.794;21.590;2022-09-09T22:34:24;8.30;;;7.40;;
51525;SDS011;37611;51.794;21.590;2022-09-09T22:38:27;9.30;;;7.50;;
51525;SDS011;37611;51.794;21.590;2022-09-09T22:42:29;7.80;;;6.90;;
51525;SDS011;37611;51.794;21.590;2022-09-09T22:46:31;8.00;;;7.10;;
51525;SDS011;37611;51.794;21.590;2022-09-09T22:50:33;8.80;;;7.80;;
51525;SDS011;37611;51.794;21.590;2022-09-09T22:54:36;8.00;;;6.50;;
51525;SDS011;37611;51.794;21.590;2022-09-09T22:58:37;7.90;;;7.20;;
51525;SDS011;37611;51.794;21.590;2022-09-09T23:02:40;9.60;;;7.60;;
51525;SDS011;37611;51.794;21.590;2022-09-09T23:06:42;11.20;;;8.80;;
51525;SDS011;37611;51.794;21.590;2022-09-09T23:10:45;8.10;;;6.70;;
51525;SDS011;37611;51.794;21.590;2022-09-09T23:14:47;6.90;;;6.20;;
51525;SDS011;37611;51.794;21.590;2022-09-09T23:18:49;7.50;;;6.00;;
51525;SDS011;37611;51.794;21.590;2022-09-09T23:22:55;7.00;;;5.70;;
51525;SDS011;37611;51.794;21.590;2022-09-09T23:26:56;7.00;;;6.00;;
51525;SDS011;37611;51.794;21.590;2022-09-09T23:30:58;8.40;;;6.30;;
51525;SDS011;37611;51.794;21.590;2022-09-09T23:35:00;7.70;;;6.30;;
51525;SDS011;37611;51.794;21.590;2022-09-09T23:39:02;7.70;;;6.60;;
51525;SDS011;37611;51.794;21.590;2022-09-09T23:43:05;9.80;;;6.90;;
51525;SDS011;37611;51.794;21.590;2022-09-09T23:47:07;7.50;;;6.50;;
51525;SDS011;37611;51.794;21.590;2022-09-09T23:51:10;7.60;;;6.90;;
51525;SDS011;37611;51.794;21.590;2022-09-09T23:55:17;8.20;;;7.30;;
51525;SDS011;37611;51.794;21.590;2022-09-09T23:59:19;7.90;;;7.10;;
